Time;durP1;ratioP1;P1;durP2;ratioP2;P2;SDS_P1;SDS_P2;PMS_P1;PMS_P2;Temp;Humidity;BMP_temperature;BMP_pressure;BME280_temperature;BME280_humidity;BME280_pressure;Samples;Min_cycle;Max_cycle;Signal;HPM_P1;HPM_P2
2024/04/15 00:00:45;;;;;;;4.63;2.15;;;16.60;99.90;;;;;;5462233;26;20229;-63
2024/04/15 00:03:14;;;;;;;2.03;1.83;;;16.60;99.90;;;;;;5466203;26;20230;-63
2024/04/15 00:05:40;;;;;;;2.65;2.10;;;16.70;99.90;;;;;;5470545;26;20271;-64
2024/04/15 00:08:09;;;;;;;2.20;1.95;;;16.70;99.90;;;;;;5468380;26;20730;-64
2024/04/15 00:10:36;;;;;;;3.35;2.35;;;16.80;99.90;;;;;;5462073;26;20226;-64
2024/04/15 00:13:04;;;;;;;4.15;2.30;;;16.90;99.90;;;;;;5462558;26;20245;-61
2024/04/15 00:15:32;;;;;;;4.55;2.35;;;16.90;99.90;;;;;;5470279;26;20229;-61
2024/04/15 00:18:01;;;;;;;3.00;2.20;;;16.90;99.90;;;;;;5443104;21;20599;-58
2024/04/15 00:20:27;;;;;;;2.85;2.22;;;16.90;99.90;;;;;;5392993;26;20632;-58
2024/04/15 00:22:55;;;;;;;3.72;2.50;;;17.00;99.90;;;;;;5407585;26;20246;-58
2024/04/15 00:25:21;;;;;;;2.70;2.20;;;17.10;99.90;;;;;;5407405;26;20231;-60
2024/04/15 00:27:50;;;;;;;5.75;2.63;;;17.10;99.90;;;;;;5407159;26;20295;-59
2024/04/15 00:30:16;;;;;;;2.65;2.38;;;17.10;99.90;;;;;;5406607;26;20269;-58
2024/04/15 00:32:46;;;;;;;6.45;2.92;;;17.30;99.90;;;;;;5407329;26;20716;-59
2024/04/15 00:35:12;;;;;;;5.68;2.63;;;17.40;99.90;;;;;;5407407;26;20732;-58
2024/04/15 00:37:40;;;;;;;3.58;2.38;;;17.30;99.90;;;;;;5407354;26;20339;-58
2024/04/15 00:40:08;;;;;;;11.93;3.03;;;17.30;99.90;;;;;;5406778;26;20227;-58
2024/04/15 00:42:36;;;;;;;4.22;2.67;;;17.30;99.90;;;;;;5406919;26;20236;-58
2024/04/15 00:45:05;;;;;;;4.63;2.58;;;17.40;99.90;;;;;;5407048;26;20235;-58
2024/04/15 00:47:33;;;;;;;4.55;2.83;;;17.30;99.90;;;;;;5406994;26;20324;-58
2024/04/15 00:50:02;;;;;;;3.10;2.70;;;17.30;99.90;;;;;;5406739;26;20571;-58
2024/04/15 00:52:30;;;;;;;4.05;2.90;;;17.40;99.90;;;;;;5392733;26;20608;-58
2024/04/15 00:54:56;;;;;;;4.82;2.97;;;17.30;99.90;;;;;;5407120;26;20255;-58
2024/04/15 00:57:24;;;;;;;3.50;2.60;;;17.30;99.90;;;;;;5406841;26;20282;-58
2024/04/15 00:59:51;;;;;;;4.15;3.10;;;17.20;99.90;;;;;;5406516;26;20265;-58
2024/04/15 01:02:19;;;;;;;3.22;2.92;;;17.10;99.90;;;;;;5406770;26;20235;-58
2024/04/15 01:04:46;;;;;;;3.95;2.88;;;17.00;99.90;;;;;;5406973;26;20239;-58
2024/04/15 01:07:18;;;;;;;6.65;2.78;;;17.00;99.90;;;;;;5406985;26;20239;-57
2024/04/15 01:09:45;;;;;;;6.35;2.90;;;16.90;99.90;;;;;;5406480;26;20701;-58
2024/04/15 01:12:13;;;;;;;3.55;3.00;;;17.00;99.90;;;;;;5406659;26;20231;-58
2024/04/15 01:14:39;;;;;;;5.07;3.20;;;17.00;99.90;;;;;;5406778;26;20266;-58
2024/04/15 01:17:07;;;;;;;4.63;3.05;;;17.10;99.90;;;;;;5406626;26;20607;-58
2024/04/15 01:19:33;;;;;;;3.63;3.03;;;17.20;99.90;;;;;;5406598;26;20273;-58
2024/04/15 01:22:01;;;;;;;4.38;3.10;;;17.30;99.90;;;;;;5406471;26;20724;-58
2024/04/15 01:24:29;;;;;;;4.18;3.10;;;17.40;99.90;;;;;;5391868;26;20227;-58
2024/04/15 01:26:58;;;;;;;3.55;2.70;;;17.40;99.90;;;;;;5406386;26;20235;-58
2024/04/15 01:29:23;;;;;;;6.22;3.13;;;17.50;99.90;;;;;;5406160;26;20235;-58
2024/04/15 01:31:52;;;;;;;5.07;3.28;;;17.40;99.90;;;;;;5406688;26;20282;-58
2024/04/15 01:34:17;;;;;;;4.65;2.88;;;17.40;99.90;;;;;;5406596;26;20717;-58
2024/04/15 01:36:46;;;;;;;4.82;2.70;;;17.40;99.90;;;;;;5406558;26;20324;-58
2024/04/15 01:39:11;;;;;;;3.45;2.80;;;17.40;99.90;;;;;;5406759;26;20232;-58
2024/04/15 01:41:43;;;;;;;3.40;3.00;;;17.40;99.90;;;;;;5406252;26;20303;-59
2024/04/15 01:44:08;;;;;;;3.58;3.05;;;17.30;99.90;;;;;;5405057;26;20231;-58
2024/04/15 01:46:36;;;;;;;3.90;3.05;;;17.30;99.90;;;;;;5406387;26;20285;-58
2024/04/15 01:49:02;;;;;;;3.60;2.88;;;17.30;99.90;;;;;;5406244;26;20231;-58
2024/04/15 01:51:31;;;;;;;4.85;2.88;;;17.20;99.90;;;;;;5405789;26;20744;-57
2024/04/15 01:53:57;;;;;;;8.70;3.30;;;17.20;99.90;;;;;;5406071;26;20233;-58
2024/04/15 01:56:25;;;;;;;3.05;2.53;;;17.10;99.90;;;;;;5406605;26;20239;-58
2024/04/15 01:58:53;;;;;;;4.30;2.75;;;17.00;99.90;;;;;;5406589;26;20685;-58
2024/04/15 02:01:22;;;;;;;4.78;2.90;;;17.00;99.90;;;;;;5405522;26;20334;-58
2024/04/15 02:03:48;;;;;;;7.60;2.95;;;16.90;99.90;;;;;;5406475;26;20231;-57
2024/04/15 02:06:17;;;;;;;5.28;2.67;;;16.80;99.90;;;;;;5405938;26;20289;-60
2024/04/15 02:08:42;;;;;;;3.08;2.75;;;16.80;99.90;;;;;;5405913;26;20280;-60
2024/04/15 02:11:10;;;;;;;4.03;2.75;;;16.70;99.90;;;;;;5405405;26;20235;-58
2024/04/15 02:13:36;;;;;;;5.25;2.50;;;16.70;99.90;;;;;;5406087;26;20239;-57
2024/04/15 02:16:08;;;;;;;2.95;2.63;;;16.70;99.90;;;;;;5405682;26;20240;-58
2024/04/15 02:18:34;;;;;;;3.30;2.30;;;16.70;99.90;;;;;;5392810;26;20231;-58
2024/04/15 02:21:02;;;;;;;3.25;2.25;;;16.80;99.90;;;;;;5405388;26;20659;-59
2024/04/15 02:23:28;;;;;;;3.97;2.40;;;16.90;99.90;;;;;;5405482;26;20281;-58
2024/04/15 02:25:56;;;;;;;3.45;2.40;;;16.90;99.90;;;;;;5405690;26;20235;-58
2024/04/15 02:28:22;;;;;;;2.10;1.90;;;16.90;99.90;;;;;;5405481;26;20274;-58
2024/04/15 02:30:51;;;;;;;4.70;2.42;;;17.00;99.90;;;;;;5405522;26;20232;-58
2024/04/15 02:33:19;;;;;;;2.25;1.70;;;17.00;99.90;;;;;;5405589;26;20275;-59
2024/04/15 02:35:48;;;;;;;4.63;1.92;;;16.90;99.90;;;;;;5406212;26;20274;-58
2024/04/15 02:38:13;;;;;;;3.90;1.75;;;16.90;99.90;;;;;;5405792;26;20334;-58
2024/04/15 02:40:42;;;;;;;3.55;2.10;;;16.90;99.90;;;;;;5404998;26;20709;-58
2024/04/15 02:43:08;;;;;;;3.33;2.38;;;17.00;99.90;;;;;;5405238;26;20239;-58
2024/04/15 02:45:36;;;;;;;3.60;2.10;;;16.90;99.90;;;;;;5405229;26;20269;-58
2024/04/15 02:48:02;;;;;;;3.08;2.17;;;17.00;99.90;;;;;;5405273;26;20285;-58
2024/04/15 02:50:33;;;;;;;2.55;1.90;;;17.00;99.90;;;;;;5404836;26;20287;-58
2024/04/15 02:52:59;;;;;;;4.82;2.40;;;17.00;99.90;;;;;;5405296;26;20846;-58
2024/04/15 02:55:27;;;;;;;2.90;1.85;;;17.00;99.90;;;;;;5407057;26;20250;-58
2024/04/15 02:57:53;;;;;;;3.92;2.17;;;17.00;99.90;;;;;;5408689;26;20235;-58
2024/04/15 03:00:23;;;;;;;2.20;1.85;;;17.00;99.90;;;;;;5408175;26;20278;-58
2024/04/15 03:02:50;;;;;;;3.60;1.85;;;17.00;99.90;;;;;;5408681;26;20325;-58
2024/04/15 03:05:20;;;;;;;2.97;2.15;;;17.10;99.90;;;;;;5408450;26;20243;-58
2024/04/15 03:07:49;;;;;;;3.20;1.85;;;17.10;99.90;;;;;;5408365;26;20586;-58
2024/04/15 03:10:18;;;;;;;2.50;2.05;;;17.00;99.90;;;;;;5407815;26;20339;-58
2024/04/15 03:12:48;;;;;;;2.80;2.40;;;16.90;99.90;;;;;;5408352;26;20235;-58
2024/04/15 03:15:16;;;;;;;4.93;3.13;;;17.00;99.90;;;;;;5408318;26;20235;-58
2024/04/15 03:17:42;;;;;;;6.68;2.60;;;16.90;99.90;;;;;;5408132;26;20235;-58
2024/04/15 03:20:12;;;;;;;3.60;2.05;;;16.80;99.90;;;;;;5407791;26;20809;-58
2024/04/15 03:22:38;;;;;;;3.97;1.85;;;16.80;99.90;;;;;;5408197;26;20235;-58
2024/04/15 03:25:09;;;;;;;4.38;1.90;;;16.80;99.90;;;;;;5408311;26;20273;-58
2024/04/15 03:27:34;;;;;;;4.25;3.30;;;16.80;99.90;;;;;;5394540;26;20239;-58
2024/04/15 03:30:03;;;;;;;4.13;2.60;;;16.80;99.90;;;;;;5407627;26;20277;-58
2024/04/15 03:32:28;;;;;;;3.10;2.22;;;16.80;99.90;;;;;;5408155;26;20590;-58
2024/04/15 03:34:57;;;;;;;4.30;2.50;;;16.80;99.90;;;;;;5408129;26;20235;-58
2024/04/15 03:37:25;;;;;;;5.22;2.53;;;16.80;99.90;;;;;;5407863;26;20291;-57
2024/04/15 03:39:53;;;;;;;5.72;2.40;;;16.70;99.90;;;;;;5407706;26;20231;-57
2024/04/15 03:42:24;;;;;;;3.25;2.53;;;16.60;99.90;;;;;;5407687;26;20363;-58
2024/04/15 03:44:55;;;;;;;5.05;2.72;;;16.60;99.90;;;;;;5408106;26;20270;-58
2024/04/15 03:47:21;;;;;;;4.53;2.70;;;16.50;99.90;;;;;;5408237;26;20235;-58
2024/04/15 03:49:49;;;;;;;6.10;2.80;;;16.50;99.90;;;;;;5408073;26;20578;-58
2024/04/15 03:52:15;;;;;;;8.27;2.75;;;16.60;99.90;;;;;;5407901;26;20231;-58
2024/04/15 03:54:44;;;;;;;5.88;3.10;;;16.50;99.90;;;;;;5407938;26;20235;-58
2024/04/15 03:57:10;;;;;;;5.38;3.00;;;16.50;99.90;;;;;;5407742;26;20274;-58
2024/04/15 03:59:41;;;;;;;4.10;3.00;;;16.50;99.90;;;;;;5407498;26;20768;-58
2024/04/15 04:02:06;;;;;;;8.15;4.75;;;16.40;99.90;;;;;;5407453;26;20274;-58
2024/04/15 04:04:36;;;;;;;7.75;3.70;;;16.40;99.90;;;;;;5393206;26;20716;-58
2024/04/15 04:07:02;;;;;;;6.55;3.60;;;16.40;99.90;;;;;;5406745;26;20463;-58
2024/04/15 04:09:30;;;;;;;4.68;3.33;;;16.40;99.90;;;;;;5406929;26;20343;-58
2024/04/15 04:11:56;;;;;;;4.82;3.40;;;16.50;99.90;;;;;;5407367;26;20239;-58
2024/04/15 04:14:25;;;;;;;5.03;3.65;;;16.50;99.90;;;;;;5407540;26;20593;-58
2024/04/15 04:16:53;;;;;;;6.35;3.42;;;16.40;99.90;;;;;;5407381;26;20236;-58
2024/04/15 04:19:25;;;;;;;4.47;3.47;;;16.30;99.90;;;;;;5406901;26;20628;-59
2024/04/15 04:21:53;;;;;;;6.88;3.47;;;16.10;99.90;;;;;;5407239;26;20273;-59
2024/04/15 04:24:19;;;;;;;4.28;3.50;;;16.10;99.90;;;;;;5407428;26;20720;-59
2024/04/15 04:26:47;;;;;;;5.18;3.42;;;16.20;99.90;;;;;;5407215;26;20289;-59
2024/04/15 04:29:13;;;;;;;7.00;4.38;;;16.20;99.90;;;;;;5407447;26;20235;-59
2024/04/15 04:31:41;;;;;;;6.85;3.65;;;16.20;99.90;;;;;;5407061;26;20262;-59
2024/04/15 04:34:10;;;;;;;5.10;3.45;;;16.30;99.90;;;;;;5407578;26;20736;-59
2024/04/15 04:36:38;;;;;;;6.90;4.00;;;16.20;99.90;;;;;;5393239;26;20243;-59
2024/04/15 04:39:04;;;;;;;11.18;4.40;;;16.20;99.90;;;;;;5407263;26;20231;-59
2024/04/15 04:41:34;;;;;;;4.30;3.50;;;16.20;99.90;;;;;;5406396;26;20331;-59
2024/04/15 04:43:59;;;;;;;5.72;3.75;;;16.20;99.90;;;;;;5407555;26;20231;-58
2024/04/15 04:46:28;;;;;;;8.25;3.80;;;16.20;99.90;;;;;;5407308;26;20277;-58
2024/04/15 04:48:53;;;;;;;5.80;3.60;;;16.20;99.90;;;;;;5407174;26;20235;-58
2024/04/15 04:51:25;;;;;;;5.15;3.67;;;16.30;99.90;;;;;;5406633;26;20660;-58
2024/04/15 04:53:51;;;;;;;4.60;3.40;;;16.30;99.90;;;;;;5407045;26;20605;-58
2024/04/15 04:56:19;;;;;;;7.05;4.63;;;16.30;99.90;;;;;;5406534;26;20239;-60
2024/04/15 04:58:47;;;;;;;4.47;3.78;;;16.30;99.90;;;;;;5406691;26;20274;-60
2024/04/15 05:01:17;;;;;;;5.38;4.15;;;16.30;99.90;;;;;;5405856;26;20231;-58
2024/04/15 05:03:44;;;;;;;8.75;4.15;;;16.30;99.90;;;;;;5406568;26;20232;-58
2024/04/15 05:06:16;;;;;;;8.47;4.40;;;16.30;99.90;;;;;;5406313;26;20239;-57
2024/04/15 05:08:46;;;;;;;7.45;4.53;;;16.40;99.90;;;;;;5406418;26;20261;-60
2024/04/15 05:11:14;;;;;;;5.88;4.55;;;16.40;99.90;;;;;;5405820;26;20239;-58
2024/04/15 05:13:40;;;;;;;8.00;4.80;;;16.40;99.90;;;;;;5406671;26;20231;-58
2024/04/15 05:16:10;;;;;;;5.68;3.95;;;16.40;99.90;;;;;;5406431;26;20273;-58
2024/04/15 05:18:37;;;;;;;5.53;3.90;;;16.40;99.90;;;;;;5390456;26;20231;-58
2024/04/15 05:21:06;;;;;;;10.25;6.25;;;16.40;99.90;;;;;;5405761;26;20278;-59
2024/04/15 05:23:32;;;;;;;7.90;4.78;;;16.40;99.90;;;;;;5406003;26;20231;-58
2024/04/15 05:26:03;;;;;;;8.40;4.55;;;16.40;99.90;;;;;;5405960;26;20277;-58
2024/04/15 05:28:28;;;;;;;7.95;4.18;;;16.40;99.90;;;;;;5406155;26;20231;-58
2024/04/15 05:30:58;;;;;;;6.47;3.72;;;16.30;99.90;;;;;;5405716;26;20273;-59
2024/04/15 05:33:25;;;;;;;8.35;4.63;;;16.40;99.90;;;;;;5405988;26;20262;-59
2024/04/15 05:35:53;;;;;;;6.38;4.25;;;16.40;99.90;;;;;;5406132;26;20623;-59
2024/04/15 05:38:19;;;;;;;6.72;4.10;;;16.40;99.90;;;;;;5405902;26;20272;-59
2024/04/15 05:40:47;;;;;;;6.43;4.32;;;16.40;99.90;;;;;;5405685;26;20239;-59
2024/04/15 05:43:16;;;;;;;7.00;3.90;;;16.40;99.90;;;;;;5405540;26;20266;-59
2024/04/15 05:45:44;;;;;;;7.90;4.28;;;16.50;99.90;;;;;;5406072;26;20760;-59
2024/04/15 05:48:10;;;;;;;6.65;4.47;;;16.50;99.90;;;;;;5405979;26;20238;-59
2024/04/15 05:50:38;;;;;;;7.57;5.15;;;16.50;99.90;;;;;;5405733;26;20269;-59
2024/04/15 05:53:04;;;;;;;8.93;4.13;;;16.50;99.90;;;;;;5406443;26;20261;-58
2024/04/15 05:55:32;;;;;;;5.10;4.13;;;16.50;99.90;;;;;;5406433;26;20595;-59
2024/04/15 05:57:58;;;;;;;7.20;4.80;;;16.40;99.90;;;;;;5405936;26;20235;-60
2024/04/15 06:00:29;;;;;;;4.90;3.95;;;16.40;99.90;;;;;;5405745;26;20278;-60
2024/04/15 06:02:55;;;;;;;5.53;4.30;;;16.40;99.90;;;;;;5405550;26;20612;-60
2024/04/15 06:05:25;;;;;;;5.72;3.95;;;16.50;99.90;;;;;;5405348;26;20235;-60
2024/04/15 06:07:52;;;;;;;7.63;6.10;;;16.50;99.90;;;;;;5405578;26;20239;-60
2024/04/15 06:10:20;;;;;;;5.88;3.08;;;16.40;99.90;;;;;;5405005;26;20615;-60
2024/04/15 06:12:47;;;;;;;4.45;3.22;;;16.50;99.90;;;;;;5405551;26;20265;-60
2024/04/15 06:15:15;;;;;;;5.97;3.27;;;16.50;99.90;;;;;;5405530;26;20230;-60
2024/04/15 06:17:44;;;;;;;7.60;3.53;;;16.40;99.90;;;;;;5436616;20;20274;-63
2024/04/15 06:20:12;;;;;;;4.97;3.45;;;16.30;99.90;;;;;;5414746;26;20235;-60
2024/04/15 06:22:38;;;;;;;7.75;3.53;;;16.20;99.90;;;;;;5415062;26;20235;-61
2024/04/15 06:25:07;;;;;;;7.32;3.65;;;16.10;99.90;;;;;;5415416;26;20235;-60
2024/04/15 06:27:33;;;;;;;7.70;5.25;;;16.10;99.90;;;;;;5415043;26;20289;-61
2024/04/15 06:30:04;;;;;;;5.57;3.28;;;16.20;99.90;;;;;;5414479;26;20234;-61
2024/04/15 06:32:29;;;;;;;3.83;3.25;;;16.30;99.90;;;;;;5415110;26;20251;-62
2024/04/15 06:35:00;;;;;;;5.10;3.60;;;16.40;99.90;;;;;;5415279;26;20264;-63
2024/04/15 06:37:26;;;;;;;5.93;3.57;;;16.40;99.90;;;;;;5415239;26;20235;-61
2024/04/15 06:39:54;;;;;;;6.47;3.73;;;16.50;99.90;;;;;;5415026;26;20231;-62
2024/04/15 06:42:20;;;;;;;4.87;3.20;;;16.50;99.90;;;;;;5414915;26;20273;-62
2024/04/15 06:44:48;;;;;;;7.93;3.40;;;16.50;99.90;;;;;;5415043;26;20732;-62
2024/04/15 06:47:15;;;;;;;7.40;3.77;;;16.50;99.90;;;;;;5414076;26;20548;-63
2024/04/15 06:49:44;;;;;;;5.78;3.55;;;16.60;99.90;;;;;;5414520;26;20235;-62
2024/04/15 06:52:13;;;;;;;6.32;3.83;;;16.60;99.90;;;;;;5415151;26;20261;-61
2024/04/15 06:54:42;;;;;;;4.75;3.08;;;16.80;99.90;;;;;;5400575;26;20235;-62
2024/04/15 06:57:08;;;;;;;8.25;3.63;;;16.90;99.90;;;;;;5414914;26;20285;-62
2024/04/15 06:59:36;;;;;;;5.28;3.70;;;17.00;99.90;;;;;;5414056;26;20238;-62
2024/04/15 07:02:02;;;;;;;3.97;3.15;;;17.00;99.90;;;;;;5414727;26;20227;-62
2024/04/15 07:04:30;;;;;;;6.65;3.50;;;16.90;99.90;;;;;;5414581;26;20277;-63
2024/04/15 07:06:58;;;;;;;10.43;5.55;;;16.90;99.90;;;;;;5414779;26;20239;-62
2024/04/15 07:09:27;;;;;;;6.32;3.47;;;16.90;99.90;;;;;;5414149;26;20712;-62
2024/04/15 07:11:55;;;;;;;3.92;2.90;;;16.80;99.90;;;;;;5414577;26;20643;-62
2024/04/15 07:14:21;;;;;;;5.50;2.90;;;16.70;99.90;;;;;;5414519;26;20281;-66
2024/04/15 07:16:49;;;;;;;4.13;2.75;;;16.70;99.90;;;;;;5413965;26;20239;-64
2024/04/15 07:19:15;;;;;;;4.60;2.53;;;16.70;99.90;;;;;;5414540;26;20231;-60
2024/04/15 07:21:43;;;;;;;5.63;3.58;;;16.70;99.90;;;;;;5414520;26;20752;-61
2024/04/15 07:24:09;;;;;;;5.65;2.90;;;16.80;99.90;;;;;;5414330;26;20231;-61
2024/04/15 07:26:40;;;;;;;7.22;3.17;;;16.90;99.90;;;;;;5414248;26;20289;-61
2024/04/15 07:29:05;;;;;;;9.13;3.97;;;17.00;99.90;;;;;;5414440;26;20747;-61
2024/04/15 07:31:34;;;;;;;5.65;2.78;;;17.00;99.90;;;;;;5413856;26;20235;-61
2024/04/15 07:33:59;;;;;;;6.75;3.42;;;17.10;99.90;;;;;;5414193;26;20234;-60
2024/04/15 07:36:28;;;;;;;6.50;2.67;;;17.20;99.90;;;;;;5413838;26;20312;-60
2024/04/15 07:38:54;;;;;;;9.85;3.00;;;17.20;99.90;;;;;;5414290;26;20234;-62
2024/04/15 07:41:22;;;;;;;5.10;2.30;;;17.20;99.90;;;;;;5413852;26;20286;-61
2024/04/15 07:43:50;;;;;;;5.88;2.78;;;17.20;99.90;;;;;;5418246;26;20282;-62
2024/04/15 07:46:19;;;;;;;4.18;2.70;;;17.20;99.90;;;;;;5417730;26;20239;-62
2024/04/15 07:48:45;;;;;;;6.15;2.67;;;17.30;99.90;;;;;;5418946;26;20712;-62
2024/04/15 07:51:13;;;;;;;4.32;2.60;;;17.40;99.90;;;;;;5417961;26;20276;-62
2024/04/15 07:53:39;;;;;;;2.90;2.20;;;17.50;99.90;;;;;;5403146;26;20235;-62
2024/04/15 07:56:07;;;;;;;6.65;2.65;;;17.40;99.90;;;;;;5418128;26;20235;-63
2024/04/15 07:58:34;;;;;;;3.83;2.22;;;17.50;99.90;;;;;;5418158;26;20243;-62
2024/04/15 08:01:05;;;;;;;4.80;2.35;;;17.40;99.90;;;;;;5417339;26;20234;-60
2024/04/15 08:03:31;;;;;;;4.75;2.75;;;17.40;99.90;;;;;;5417366;26;20758;-61
2024/04/15 08:05:59;;;;;;;7.20;2.60;;;17.50;99.90;;;;;;5417798;26;20291;-61
2024/04/15 08:08:25;;;;;;;7.57;2.50;;;17.50;99.90;;;;;;5417420;26;20239;-62
2024/04/15 08:10:53;;;;;;;6.47;3.10;;;17.60;99.90;;;;;;5417164;26;20238;-61
2024/04/15 08:13:19;;;;;;;6.13;2.45;;;17.60;99.90;;;;;;5417496;26;20231;-61
2024/04/15 08:15:48;;;;;;;3.95;2.25;;;17.70;99.90;;;;;;5417237;26;20277;-61
2024/04/15 08:18:16;;;;;;;5.53;2.90;;;17.70;99.90;;;;;;5417338;26;20243;-60
2024/04/15 08:20:45;;;;;;;6.78;3.00;;;17.80;99.90;;;;;;5402612;26;20243;-61
2024/04/15 08:23:11;;;;;;;5.82;2.50;;;17.90;99.90;;;;;;5416721;26;20231;-61
2024/04/15 08:25:39;;;;;;;6.10;2.70;;;17.90;99.90;;;;;;5416623;26;20556;-61
2024/04/15 08:28:05;;;;;;;5.10;2.58;;;17.90;99.90;;;;;;5416782;26;20235;-61
2024/04/15 08:30:35;;;;;;;16.23;10.65;;;17.90;99.90;;;;;;5416034;26;20231;-62
2024/04/15 08:33:00;;;;;;;6.55;2.67;;;18.00;99.90;;;;;;5416887;26;20837;-61
2024/04/15 08:35:32;;;;;;;6.45;2.50;;;17.90;99.90;;;;;;5416405;26;20243;-62
2024/04/15 08:37:58;;;;;;;6.13;3.80;;;18.00;99.90;;;;;;5416788;26;20238;-62
2024/04/15 08:40:26;;;;;;;5.03;2.72;;;18.10;99.90;;;;;;5416503;26;20238;-61
2024/04/15 08:42:53;;;;;;;6.70;3.42;;;18.30;99.90;;;;;;5416399;26;20331;-61
2024/04/15 08:45:23;;;;;;;5.80;3.10;;;18.60;99.90;;;;;;5416645;26;20235;-62
2024/04/15 08:47:52;;;;;;;6.95;2.90;;;18.70;99.90;;;;;;5416629;26;20239;-62
2024/04/15 08:50:20;;;;;;;5.20;2.88;;;18.80;99.90;;;;;;5416058;26;20340;-62
2024/04/15 08:52:51;;;;;;;5.85;2.92;;;18.60;99.90;;;;;;5416172;26;20227;-62
2024/04/15 08:55:20;;;;;;;4.85;3.58;;;18.60;99.90;;;;;;5416435;26;20281;-61
2024/04/15 08:57:47;;;;;;;6.13;3.00;;;18.50;99.90;;;;;;5416512;26;20288;-62
2024/04/15 09:00:20;;;;;;;6.38;3.13;;;18.50;99.90;;;;;;5415779;26;20287;-61
2024/04/15 09:02:46;;;;;;;6.80;2.75;;;18.50;99.90;;;;;;5402524;26;20261;-61
2024/04/15 09:05:16;;;;;;;4.35;2.70;;;18.80;99.90;;;;;;5416445;26;20231;-62
2024/04/15 09:07:44;;;;;;;15.35;10.23;;;19.10;99.90;;;;;;5401999;26;20270;-64
2024/04/15 09:10:15;;;;;;;14.23;9.55;;;19.30;99.90;;;;;;5415792;26;20243;-62
2024/04/15 09:12:42;;;;;;;5.03;3.28;;;19.60;99.90;;;;;;5416439;26;20266;-61
2024/04/15 09:15:12;;;;;;;6.43;3.08;;;19.70;99.90;;;;;;5416431;26;20235;-61
2024/04/15 09:17:38;;;;;;;7.10;3.05;;;19.90;99.90;;;;;;5415904;26;20761;-60
2024/04/15 09:20:07;;;;;;;5.38;3.17;;;20.10;99.90;;;;;;5415977;26;20235;-60
2024/04/15 09:22:33;;;;;;;8.52;3.15;;;20.30;99.90;;;;;;5416030;26;20728;-60
2024/04/15 09:25:03;;;;;;;9.30;7.00;;;20.20;99.90;;;;;;5415979;26;20736;-62
2024/04/15 09:27:31;;;;;;;6.78;3.47;;;20.30;99.90;;;;;;5415776;26;20235;-60
2024/04/15 09:30:01;;;;;;;5.70;2.85;;;20.30;99.90;;;;;;5415583;26;20277;-59
2024/04/15 09:32:27;;;;;;;5.28;3.33;;;20.60;99.90;;;;;;5415725;26;20231;-60
2024/04/15 09:35:02;;;;;;;5.30;3.13;;;20.90;99.90;;;;;;5416364;26;20231;-61
2024/04/15 09:37:28;;;;;;;7.28;3.17;;;20.90;99.90;;;;;;5417583;26;20230;-61
2024/04/15 09:39:57;;;;;;;6.65;3.97;;;20.80;99.90;;;;;;5415828;26;20587;-61
2024/04/15 09:42:23;;;;;;;6.22;3.70;;;20.70;99.90;;;;;;5415585;26;20290;-61
2024/04/15 09:44:56;;;;;;;5.63;3.25;;;20.70;99.90;;;;;;5416078;26;20270;-61
2024/04/15 09:47:23;;;;;;;4.78;3.03;;;20.70;99.90;;;;;;5415982;26;20234;-61
2024/04/15 09:49:51;;;;;;;6.05;2.85;;;21.10;99.90;;;;;;5415732;26;20239;-61
2024/04/15 09:52:20;;;;;;;4.95;2.85;;;21.40;99.90;;;;;;5415526;26;20581;-60
2024/04/15 09:54:53;;;;;;;5.20;3.10;;;21.70;99.90;;;;;;5401916;26;20770;-61
2024/04/15 09:57:20;;;;;;;4.43;2.80;;;21.70;99.90;;;;;;5415747;26;20707;-61
2024/04/15 09:59:57;;;;;;;7.28;3.15;;;21.80;99.90;;;;;;5416191;26;20587;-61
2024/04/15 10:02:26;;;;;;;4.43;2.67;;;21.70;99.90;;;;;;5415664;26;20231;-61
2024/04/15 10:04:59;;;;;;;8.02;3.47;;;21.60;99.90;;;;;;5414410;26;20235;-61
2024/04/15 10:07:27;;;;;;;5.80;2.83;;;21.40;99.90;;;;;;5415532;26;20231;-61
2024/04/15 10:09:56;;;;;;;4.78;2.85;;;21.00;99.90;;;;;;5415159;26;20265;-61
2024/04/15 10:12:23;;;;;;;4.38;2.80;;;20.60;99.90;;;;;;5415421;26;20235;-61
2024/04/15 10:14:51;;;;;;;5.63;3.00;;;20.40;99.90;;;;;;5415292;26;20261;-61
2024/04/15 10:17:24;;;;;;;5.53;2.70;;;20.20;99.90;;;;;;5415368;26;20274;-60
2024/04/15 10:19:52;;;;;;;4.65;2.70;;;20.00;99.90;;;;;;5402060;26;20335;-61
2024/04/15 10:22:18;;;;;;;4.80;2.97;;;19.90;99.90;;;;;;5415196;26;20231;-66
2024/04/15 10:24:47;;;;;;;6.30;2.97;;;20.00;99.90;;;;;;5415163;26;20266;-60
2024/04/15 10:27:13;;;;;;;6.72;2.70;;;20.50;99.90;;;;;;5414777;26;20317;-61
2024/04/15 10:29:42;;;;;;;5.20;2.65;;;21.00;99.90;;;;;;5414436;26;20276;-61
2024/04/15 10:32:08;;;;;;;4.38;2.47;;;21.40;99.90;;;;;;5415361;26;20265;-61
2024/04/15 10:34:43;;;;;;;3.90;2.28;;;21.90;99.90;;;;;;5415144;26;20231;-61
2024/04/15 10:37:11;;;;;;;4.63;2.50;;;22.50;99.90;;;;;;5415279;26;20272;-61
2024/04/15 10:39:46;;;;;;;4.90;2.42;;;22.80;99.90;;;;;;5414532;26;20231;-60
2024/04/15 10:42:12;;;;;;;5.68;2.20;;;22.90;99.90;;;;;;5415276;26;20286;-61
2024/04/15 10:44:41;;;;;;;3.97;2.03;;;22.80;99.90;;;;;;5414789;26;20235;-62
2024/04/15 10:47:06;;;;;;;6.03;2.13;;;22.50;99.90;;;;;;5414579;26;20778;-61
2024/04/15 10:49:35;;;;;;;5.88;2.30;;;22.30;99.90;;;;;;5414603;26;20235;-60
2024/04/15 10:52:04;;;;;;;4.40;2.47;;;22.00;99.90;;;;;;5414991;26;20261;-61
2024/04/15 10:54:34;;;;;;;4.45;1.80;;;21.70;99.90;;;;;;5414992;26;20660;-60
2024/04/15 10:57:00;;;;;;;4.72;2.10;;;21.50;99.90;;;;;;5414864;26;20239;-60
2024/04/15 10:59:28;;;;;;;5.05;2.40;;;21.30;99.90;;;;;;5414243;26;20307;-60
2024/04/15 11:01:54;;;;;;;12.90;2.88;;;21.10;99.90;;;;;;5414631;26;20231;-60
2024/04/15 11:04:23;;;;;;;5.00;2.88;;;21.00;99.90;;;;;;5414627;26;20278;-61
2024/04/15 11:06:48;;;;;;;7.75;4.22;;;20.80;99.90;;;;;;5414340;26;20708;-61
2024/04/15 11:09:20;;;;;;;9.93;4.95;;;20.70;99.90;;;;;;5414552;26;20293;-62
2024/04/15 11:11:45;;;;;;;5.43;2.10;;;20.70;99.90;;;;;;5399924;26;20271;-62
2024/04/15 11:14:14;;;;;;;4.65;1.50;;;20.80;99.90;;;;;;5414473;26;20267;-60
2024/04/15 11:16:44;;;;;;;4.45;1.67;;;21.00;99.90;;;;;;5416387;26;20243;-60
2024/04/15 11:19:15;;;;;;;6.68;3.25;;;21.10;99.90;;;;;;5417996;26;20234;-60
2024/04/15 11:21:40;;;;;;;6.70;1.58;;;21.10;99.90;;;;;;5417348;26;20243;-61
2024/04/15 11:24:10;;;;;;;5.05;2.00;;;21.10;99.90;;;;;;5417994;26;20290;-60
2024/04/15 11:26:39;;;;;;;7.22;3.30;;;21.20;99.90;;;;;;5417696;26;20227;-61
2024/04/15 11:29:09;;;;;;;5.63;2.33;;;21.30;99.90;;;;;;5417870;26;20234;-60
2024/04/15 11:31:36;;;;;;;4.43;1.58;;;21.40;99.90;;;;;;5417867;26;20360;-60
2024/04/15 11:34:04;;;;;;;7.50;3.05;;;21.40;99.90;;;;;;5418142;26;20277;-61
2024/04/15 11:36:30;;;;;;;6.15;2.60;;;21.30;99.90;;;;;;5417539;26;20234;-59
2024/04/15 11:38:59;;;;;;;7.00;2.25;;;21.20;99.90;;;;;;5417467;26;20235;-60
2024/04/15 11:41:26;;;;;;;5.28;1.83;;;21.30;99.90;;;;;;5417729;26;20235;-61
2024/04/15 11:43:57;;;;;;;3.17;1.90;;;21.40;99.90;;;;;;5417648;26;20235;-60
2024/04/15 11:46:23;;;;;;;5.40;2.13;;;21.60;99.90;;;;;;5417706;26;20235;-61
2024/04/15 11:48:51;;;;;;;5.22;1.77;;;21.70;99.90;;;;;;5417319;26;20261;-60
2024/04/15 11:51:17;;;;;;;8.68;3.35;;;21.60;99.90;;;;;;5417315;26;20569;-60
2024/04/15 11:53:47;;;;;;;6.43;3.47;;;21.60;99.90;;;;;;5417366;26;20235;-60
2024/04/15 11:56:14;;;;;;;4.82;2.30;;;21.50;99.90;;;;;;5417604;26;20231;-60
2024/04/15 11:58:42;;;;;;;5.30;2.22;;;21.40;99.90;;;;;;5417740;26;20269;-60
2024/04/15 12:01:11;;;;;;;3.45;1.48;;;21.30;99.90;;;;;;5417322;26;20274;-60
2024/04/15 12:03:40;;;;;;;3.25;1.50;;;21.10;99.90;;;;;;5417469;26;20272;-60
2024/04/15 12:06:06;;;;;;;3.45;1.48;;;21.00;99.90;;;;;;5418297;26;20235;-59
2024/04/15 12:08:37;;;;;;;7.47;1.80;;;20.80;99.90;;;;;;5417780;26;20759;-60
2024/04/15 12:11:06;;;;;;;6.53;2.10;;;20.70;99.90;;;;;;5417358;26;20235;-60
2024/04/15 12:13:34;;;;;;;5.20;1.38;;;20.50;99.90;;;;;;5417729;26;20273;-59
2024/04/15 12:16:00;;;;;;;6.78;1.60;;;20.50;99.90;;;;;;5417886;26;20334;-60
2024/04/15 12:18:31;;;;;;;7.97;1.42;;;20.50;99.90;;;;;;5418063;26;20281;-62
2024/04/15 12:20:57;;;;;;;2.88;1.27;;;20.70;99.90;;;;;;5417350;26;20265;-62
2024/04/15 12:23:25;;;;;;;4.63;1.48;;;21.10;99.90;;;;;;5417137;26;20234;-61
2024/04/15 12:25:51;;;;;;;4.60;1.80;;;21.40;99.90;;;;;;5417365;26;20754;-62
2024/04/15 12:28:20;;;;;;;4.13;1.60;;;21.80;99.90;;;;;;5416624;26;20247;-61
2024/04/15 12:30:47;;;;;;;8.73;2.90;;;22.20;99.90;;;;;;5416494;26;20242;-62
2024/04/15 12:33:15;;;;;;;8.43;3.75;;;22.60;99.90;;;;;;5416738;26;20679;-61
2024/04/15 12:35:45;;;;;;;3.17;1.85;;;22.80;99.90;;;;;;5416680;26;20264;-61
2024/04/15 12:38:13;;;;;;;3.75;2.03;;;23.00;99.90;;;;;;5416717;26;20434;-61
2024/04/15 12:40:39;;;;;;;2.70;1.88;;;23.10;99.90;;;;;;5416111;26;20231;-60
2024/04/15 12:43:07;;;;;;;7.72;1.90;;;23.30;99.90;;;;;;5417271;26;20763;-63
2024/04/15 12:45:34;;;;;;;4.30;1.90;;;23.40;99.90;;;;;;5416933;26;20230;-61
2024/04/15 12:48:03;;;;;;;3.20;1.90;;;23.30;99.90;;;;;;5416823;26;20247;-61